Hlavní strana
METAR-TAF:

METAR-TAF

Letiště :

Letiště Houariho Boumédièna

Alžír, Alžírsko

zeměpisná šířka: 36-43N, zeměpisná délka: 003-15E, výška: 25 m

Aktuální stav počasí

Zpráva byla vytvořena před 18 minutami, v 11:30 UTC
Jihozápadní vítr 6 kt, proměnlivý mezi jižním a západním
Teplota 21°C
Vlhkost vzduchu 26%
Tlak 1026 hPa
Viditelnost 10 km a více
Žádná oblačnost pod 1500 m, nevyskytují se cumulonimby.

METAR: DAAG 171130Z 23006KT 190V270 CAVOK 21/01 Q1026

Čas: 12:48 (11:48 UTC)

Předpověď počasí

Zpráva byla vytvořena před 48 minutami, v 11:00 UTC
Předpověď platná od 17 v 12 UTC do 18 v 12 UTC
Jihojihozápadní vítr 8 kt
Viditelnost 10 km a více
Žádná oblačnost pod 1500 m, nevyskytují se cumulonimby.

TAF: DAAG 171100Z 1712/1812 20008KT CAVOK

Stav a předpovědi počasí z více než 4 000 letišť (zprávy METAR a TAF).

Červené a žluté tečky na mapě představují dostupné meteorologické stanice.

Když kurzor umístíte na tečku, zobrazí se název stanice.

Pak kliknutím zobrazíte stav a předpověď počasí.

Chcete-li změnit mapu, kliknutím na zelené tlačítko se znaménkem +mapu přiblížíte, kliknutím na zelené tlačítko se znaménkem – mapu oddálíte a kliknutím na zelené šipky přejdete na sousední mapy.


METAR-TAF: